createdAt,value
2018-05-29T00:00:27.098Z,23.30
2018-05-29T00:02:53.803Z,23.20
2018-05-29T00:05:20.529Z,23.30
2018-05-29T00:07:47.360Z,23.20
2018-05-29T00:10:14.134Z,23.20
2018-05-29T00:12:42.358Z,23.20
2018-05-29T00:15:09.202Z,23.20
2018-05-29T00:17:36.641Z,23.20
2018-05-29T00:20:04.157Z,23.10
2018-05-29T00:22:30.895Z,23.10
2018-05-29T00:24:57.543Z,23.20
2018-05-29T00:27:24.264Z,23.10
2018-05-29T00:29:51.114Z,23.10
2018-05-29T00:32:17.831Z,23.10
2018-05-29T00:34:44.598Z,23.00
2018-05-29T00:37:11.442Z,23.00
2018-05-29T00:39:38.390Z,22.90
2018-05-29T00:42:05.101Z,22.90
2018-05-29T00:44:31.838Z,22.90
2018-05-29T00:50:36.121Z,22.90
2018-05-29T00:53:02.947Z,22.90
2018-05-29T00:55:36.599Z,22.90
2018-05-29T00:58:04.081Z,22.80
2018-05-29T01:00:31.489Z,22.90
2018-05-29T01:02:58.237Z,22.90
2018-05-29T01:05:24.967Z,22.90
2018-05-29T01:07:51.722Z,22.90
2018-05-29T01:10:18.515Z,22.90
2018-05-29T01:12:45.999Z,22.90
2018-05-29T01:15:12.743Z,22.90
2018-05-29T01:17:39.486Z,22.90
2018-05-29T01:20:06.291Z,22.90
2018-05-29T01:22:33.912Z,22.80
2018-05-29T01:25:00.721Z,22.80
2018-05-29T01:27:27.850Z,22.80
2018-05-29T01:29:55.446Z,22.70
2018-05-29T01:32:22.187Z,22.70
2018-05-29T01:34:48.967Z,22.70
2018-05-29T01:37:15.735Z,22.70
2018-05-29T01:39:43.207Z,22.70
2018-05-29T01:42:10.697Z,22.60
2018-05-29T01:44:37.438Z,22.60
2018-05-29T01:47:04.174Z,22.60
2018-05-29T01:49:30.956Z,22.60
2018-05-29T01:51:57.672Z,22.60
2018-05-29T01:54:24.421Z,22.50
2018-05-29T01:56:51.134Z,22.50
2018-05-29T01:59:33.407Z,22.50
2018-05-29T02:02:00.071Z,22.40
2018-05-29T02:04:27.608Z,22.50
2018-05-29T02:06:54.230Z,22.40
2018-05-29T02:09:20.947Z,22.40
2018-05-29T02:11:47.673Z,22.30
2018-05-29T02:14:14.378Z,22.30
2018-05-29T02:16:41.168Z,22.30
2018-05-29T02:19:08.637Z,22.30
2018-05-29T02:21:35.347Z,22.30
2018-05-29T02:24:02.779Z,22.40
2018-05-29T02:26:29.478Z,22.40
2018-05-29T02:28:56.134Z,22.40
2018-05-29T02:31:22.977Z,22.40
2018-05-29T02:33:49.723Z,22.30
2018-05-29T02:36:16.529Z,22.30
2018-05-29T02:38:43.210Z,22.30
2018-05-29T02:41:10.015Z,22.20
2018-05-29T02:43:37.609Z,22.10
2018-05-29T02:46:04.361Z,22.10
2018-05-29T02:48:31.077Z,22.10
2018-05-29T02:50:57.783Z,22.00
2018-05-29T02:53:25.198Z,22.00
2018-05-29T02:55:51.932Z,22.00
2018-05-29T02:58:18.623Z,22.00
2018-05-29T03:00:46.107Z,22.10
2018-05-29T03:03:12.856Z,22.00
2018-05-29T03:05:39.706Z,22.00
2018-05-29T03:08:06.592Z,22.00
2018-05-29T03:10:33.393Z,21.90
2018-05-29T03:13:00.328Z,21.90
2018-05-29T03:15:27.797Z,21.90
2018-05-29T03:17:54.641Z,21.80
2018-05-29T03:20:21.506Z,21.90
2018-05-29T03:22:48.255Z,21.80
2018-05-29T03:25:14.974Z,21.80
2018-05-29T03:27:41.842Z,21.70
2018-05-29T03:30:08.688Z,21.70
2018-05-29T03:32:35.451Z,21.70
2018-05-29T03:35:02.276Z,21.70
2018-05-29T03:37:29.118Z,21.70
2018-05-29T03:39:55.862Z,21.70
2018-05-29T03:42:22.632Z,21.70
2018-05-29T03:44:49.416Z,21.70
2018-05-29T03:47:16.129Z,21.70
2018-05-29T03:49:43.596Z,21.80
2018-05-29T03:52:11.039Z,21.70
2018-05-29T03:54:37.898Z,21.70
2018-05-29T03:57:05.367Z,21.80
2018-05-29T03:59:32.862Z,21.80
2018-05-29T04:01:59.563Z,21.70
2018-05-29T04:04:27.013Z,21.80
2018-05-29T04:06:54.508Z,21.80
2018-05-29T04:09:21.941Z,21.70
2018-05-29T04:11:49.406Z,21.70
2018-05-29T04:14:17.015Z,21.70
2018-05-29T04:16:43.725Z,21.70
2018-05-29T04:19:10.500Z,21.70
2018-05-29T04:21:37.263Z,21.70
2018-05-29T04:24:04.056Z,21.70
2018-05-29T04:26:30.740Z,21.70
2018-05-29T04:28:57.469Z,21.70
2018-05-29T04:31:24.166Z,21.80
2018-05-29T04:33:51.775Z,21.70
2018-05-29T04:36:18.575Z,21.70
2018-05-29T04:38:46.158Z,21.70
2018-05-29T04:41:12.927Z,21.70
2018-05-29T04:43:39.698Z,21.70
2018-05-29T04:46:07.194Z,21.80
2018-05-29T04:48:33.971Z,21.70
2018-05-29T04:51:00.689Z,21.70
2018-05-29T04:53:27.557Z,21.80
2018-05-29T04:55:54.236Z,21.70
2018-05-29T04:58:20.969Z,21.80
2018-05-29T05:00:48.501Z,21.80
2018-05-29T05:03:15.210Z,21.80
2018-05-29T05:05:41.909Z,21.80
2018-05-29T05:08:08.645Z,21.90
2018-05-29T05:10:35.318Z,21.90
2018-05-29T05:13:02.754Z,21.90
2018-05-29T05:15:29.571Z,21.90
2018-05-29T05:17:56.284Z,21.90
2018-05-29T05:20:23.246Z,21.90
2018-05-29T05:22:50.003Z,21.90
2018-05-29T05:25:17.711Z,22.00
2018-05-29T05:27:45.205Z,22.00
2018-05-29T05:30:11.946Z,22.00
2018-05-29T05:32:38.855Z,22.00
2018-05-29T05:35:05.664Z,22.00
2018-05-29T05:37:32.380Z,22.00
2018-05-29T05:39:59.127Z,22.10
2018-05-29T05:42:26.031Z,22.10
2018-05-29T05:44:52.814Z,22.10
2018-05-29T05:47:19.661Z,22.10
2018-05-29T05:49:46.379Z,22.10
2018-05-29T05:52:13.884Z,22.10
2018-05-29T05:54:40.574Z,22.10
2018-05-29T05:57:08.084Z,22.20
2018-05-29T05:59:34.934Z,22.10
2018-05-29T06:02:01.629Z,22.20
2018-05-29T06:04:29.031Z,22.30
2018-05-29T06:06:55.874Z,22.30
2018-05-29T06:09:22.612Z,22.30
2018-05-29T06:11:49.314Z,22.30
2018-05-29T06:14:25.853Z,22.40
2018-05-29T06:16:52.675Z,22.40
2018-05-29T06:19:19.486Z,22.40
2018-05-29T06:21:46.348Z,22.40
2018-05-29T06:24:13.055Z,22.50
2018-05-29T06:26:40.546Z,22.50
2018-05-29T06:29:07.241Z,22.50
2018-05-29T06:31:34.029Z,22.50
2018-05-29T06:34:00.898Z,22.50
2018-05-29T06:36:27.739Z,22.50
2018-05-29T06:38:54.566Z,22.40
2018-05-29T06:41:21.414Z,22.40
2018-05-29T06:43:48.140Z,22.50
2018-05-29T06:46:14.813Z,22.50
2018-05-29T06:48:41.507Z,22.50
2018-05-29T06:51:09.014Z,22.50
2018-05-29T06:53:35.707Z,22.50
2018-05-29T06:56:03.217Z,22.50
2018-05-29T06:58:30.036Z,22.50
2018-05-29T07:00:56.909Z,22.50
2018-05-29T07:03:23.648Z,22.50
2018-05-29T07:05:50.378Z,22.60
2018-05-29T07:08:17.104Z,22.70
2018-05-29T07:10:43.803Z,22.70
2018-05-29T07:13:10.483Z,22.70
2018-05-29T07:15:37.166Z,22.80
2018-05-29T07:18:03.965Z,22.80
2018-05-29T07:20:30.647Z,22.90
2018-05-29T07:22:57.355Z,23.00
2018-05-29T07:25:24.056Z,23.10
2018-05-29T07:27:50.770Z,23.20
2018-05-29T07:30:17.629Z,23.20
2018-05-29T07:32:44.457Z,23.20
2018-05-29T07:35:11.201Z,23.30
2018-05-29T07:37:37.907Z,23.30
2018-05-29T07:40:04.584Z,23.30
2018-05-29T07:42:31.255Z,23.40
2018-05-29T07:44:58.709Z,23.40
2018-05-29T07:47:25.506Z,23.40
2018-05-29T07:49:52.402Z,23.50
2018-05-29T07:52:19.143Z,23.50
2018-05-29T07:54:45.902Z,23.50
2018-05-29T07:57:13.443Z,23.50
2018-05-29T07:59:40.980Z,23.50
2018-05-29T08:02:07.686Z,23.50
2018-05-29T08:04:34.530Z,23.50
2018-05-29T08:07:01.247Z,23.60
2018-05-29T08:09:28.770Z,23.60
2018-05-29T08:11:55.495Z,23.50
2018-05-29T08:14:35.585Z,23.60
2018-05-29T08:17:02.497Z,23.60
2018-05-29T08:19:29.237Z,23.60
2018-05-29T08:21:56.735Z,23.60
2018-05-29T08:24:23.560Z,23.60
2018-05-29T08:26:50.284Z,23.60
2018-05-29T08:29:17.124Z,23.60
2018-05-29T08:31:43.847Z,23.70
2018-05-29T08:34:11.265Z,23.60
2018-05-29T08:36:37.976Z,23.70
2018-05-29T08:39:05.658Z,23.70
2018-05-29T08:41:32.378Z,23.80
2018-05-29T08:43:59.116Z,23.80
2018-05-29T08:46:25.888Z,23.90
2018-05-29T08:48:52.642Z,23.90
2018-05-29T08:51:19.470Z,24.00
2018-05-29T08:53:46.256Z,24.00
2018-05-29T08:56:13.756Z,24.10
2018-05-29T08:58:40.531Z,24.10
2018-05-29T09:01:07.245Z,24.20
2018-05-29T09:03:34.082Z,24.20
2018-05-29T09:06:00.955Z,24.20
2018-05-29T09:08:27.709Z,24.30
2018-05-29T09:10:54.502Z,24.30
2018-05-29T09:13:21.359Z,24.40
2018-05-29T09:15:48.230Z,24.40
2018-05-29T09:18:15.050Z,24.40
2018-05-29T09:20:41.915Z,24.40
2018-05-29T09:23:08.653Z,24.50
2018-05-29T09:25:35.346Z,24.50
2018-05-29T09:28:02.860Z,24.60
2018-05-29T09:30:29.827Z,24.50
2018-05-29T09:32:56.560Z,24.60
2018-05-29T09:35:23.365Z,24.60
2018-05-29T09:37:50.101Z,24.60
2018-05-29T09:40:16.995Z,24.60
2018-05-29T09:42:43.722Z,24.60
2018-05-29T09:45:10.446Z,24.60
2018-05-29T09:47:37.225Z,24.60
2018-05-29T09:50:04.031Z,24.60
2018-05-29T09:52:31.026Z,24.70
2018-05-29T09:54:57.852Z,24.70
2018-05-29T09:57:24.591Z,24.70
2018-05-29T09:59:51.295Z,24.70
2018-05-29T10:02:18.803Z,24.80
2018-05-29T10:04:45.516Z,24.70
2018-05-29T10:07:12.368Z,24.80
2018-05-29T10:09:39.101Z,24.90
2018-05-29T10:12:05.910Z,24.90
2018-05-29T10:14:48.607Z,24.90
2018-05-29T10:17:15.266Z,24.90
2018-05-29T10:19:42.737Z,25.10
2018-05-29T10:22:10.196Z,25.10
2018-05-29T10:24:37.743Z,25.20
2018-05-29T10:27:04.478Z,25.20
2018-05-29T10:29:31.198Z,25.20
2018-05-29T10:31:57.966Z,25.30
2018-05-29T10:34:24.690Z,25.30
2018-05-29T10:36:51.384Z,25.40
2018-05-29T10:39:18.099Z,25.40
2018-05-29T10:41:45.612Z,25.40
2018-05-29T10:44:12.323Z,25.40
2018-05-29T10:46:39.039Z,25.50
2018-05-29T10:49:06.538Z,25.50
2018-05-29T10:51:33.291Z,25.50
2018-05-29T10:53:59.998Z,25.50
2018-05-29T10:56:27.530Z,25.70
2018-05-29T10:58:54.273Z,25.70
2018-05-29T11:01:20.971Z,25.70
2018-05-29T11:03:47.704Z,25.70
2018-05-29T11:06:14.424Z,25.80
2018-05-29T11:08:41.858Z,25.90
2018-05-29T11:11:09.673Z,25.90
2018-05-29T11:13:36.462Z,25.90
2018-05-29T11:16:05.453Z,25.90
2018-05-29T11:18:32.169Z,26.00
2018-05-29T11:20:58.968Z,26.00
2018-05-29T11:23:26.427Z,26.10
2018-05-29T11:25:53.903Z,26.10
2018-05-29T11:28:21.381Z,26.20
2018-05-29T11:30:48.121Z,26.10
2018-05-29T11:33:14.767Z,26.20
2018-05-29T11:35:42.219Z,26.20
2018-05-29T11:38:08.938Z,26.20
2018-05-29T11:44:06.737Z,26.30
2018-05-29T11:46:34.206Z,26.40
2018-05-29T11:49:00.983Z,26.40
2018-05-29T11:51:27.830Z,26.50
2018-05-29T11:53:54.543Z,26.40
2018-05-29T11:56:21.262Z,26.50
2018-05-29T11:58:48.773Z,26.60
2018-05-29T12:01:15.618Z,26.60
2018-05-29T12:03:42.334Z,26.60
2018-05-29T12:06:09.112Z,26.70
2018-05-29T12:08:35.841Z,26.70
2018-05-29T12:11:02.718Z,26.70
2018-05-29T12:13:29.534Z,26.80
2018-05-29T12:16:16.544Z,26.80
2018-05-29T12:18:43.297Z,26.80
2018-05-29T12:21:10.033Z,26.90
2018-05-29T12:23:36.746Z,26.90
2018-05-29T12:26:03.502Z,27.00
2018-05-29T12:28:30.238Z,27.00
2018-05-29T12:30:56.922Z,27.10
2018-05-29T12:33:23.608Z,27.10
2018-05-29T12:35:51.079Z,27.10
2018-05-29T12:38:17.831Z,27.10
2018-05-29T12:40:45.265Z,27.20
2018-05-29T12:43:11.961Z,27.20
2018-05-29T12:45:38.722Z,27.20
2018-05-29T12:48:05.416Z,27.30
2018-05-29T12:50:32.211Z,27.30
2018-05-29T12:52:58.954Z,27.30
2018-05-29T12:55:25.689Z,27.30
2018-05-29T12:57:52.507Z,27.30
2018-05-29T13:00:19.378Z,27.30
2018-05-29T13:02:46.083Z,27.40
2018-05-29T13:05:12.826Z,27.40
2018-05-29T13:07:39.546Z,27.40
2018-05-29T13:10:06.346Z,27.40
2018-05-29T13:12:34.531Z,27.50
2018-05-29T13:18:10.155Z,27.50
2018-05-29T13:20:36.899Z,27.60
2018-05-29T13:23:03.667Z,27.60
2018-05-29T13:25:30.413Z,27.60
2018-05-29T13:27:57.110Z,27.70
2018-05-29T13:30:24.070Z,27.70
2018-05-29T13:32:50.842Z,27.80
2018-05-29T13:35:17.603Z,27.70
2018-05-29T13:41:15.123Z,27.90
2018-05-29T13:43:42.626Z,27.80
2018-05-29T13:46:09.369Z,27.80
2018-05-29T13:48:36.114Z,27.90
2018-05-29T13:51:02.851Z,27.90
2018-05-29T13:53:29.594Z,27.90
2018-05-29T13:55:56.338Z,27.90
2018-05-29T13:58:23.172Z,27.90
2018-05-29T14:00:50.026Z,28.00
2018-05-29T14:03:16.793Z,28.10
2018-05-29T14:05:43.546Z,28.10
2018-05-29T14:08:10.342Z,28.10
2018-05-29T14:10:37.086Z,28.20
2018-05-29T14:19:03.380Z,28.20
2018-05-29T14:21:30.133Z,28.20
2018-05-29T14:23:56.846Z,28.20
2018-05-29T14:26:23.569Z,28.30
2018-05-29T14:28:50.281Z,28.30
2018-05-29T14:31:17.020Z,28.30
2018-05-29T14:33:43.709Z,28.30
2018-05-29T14:36:10.398Z,28.30
2018-05-29T14:38:37.118Z,28.30
2018-05-29T14:41:03.840Z,28.30
2018-05-29T14:43:30.599Z,28.30
2018-05-29T14:45:57.316Z,28.30
2018-05-29T14:48:24.010Z,28.40
2018-05-29T14:50:50.762Z,28.40
2018-05-29T14:53:18.246Z,28.40
2018-05-29T14:55:44.944Z,28.30
2018-05-29T14:58:11.763Z,28.40
2018-05-29T15:00:38.449Z,28.40
2018-05-29T15:03:05.217Z,28.40
2018-05-29T15:05:31.997Z,28.40
2018-05-29T15:07:58.719Z,28.40
2018-05-29T15:10:25.718Z,28.30
2018-05-29T15:12:53.214Z,28.40
2018-05-29T15:18:20.455Z,28.40
2018-05-29T15:20:47.254Z,28.40
2018-05-29T15:23:13.993Z,28.40
2018-05-29T15:25:40.751Z,28.40
2018-05-29T15:28:07.491Z,28.40
2018-05-29T15:30:34.195Z,28.40
2018-05-29T15:33:01.655Z,28.30
2018-05-29T15:35:28.459Z,28.30
2018-05-29T15:37:55.244Z,28.20
2018-05-29T15:40:22.095Z,28.20
2018-05-29T15:42:48.822Z,28.20
2018-05-29T15:45:16.297Z,28.10
2018-05-29T15:47:42.998Z,28.10
2018-05-29T15:50:09.747Z,28.10
2018-05-29T15:52:36.524Z,28.10
2018-05-29T15:55:03.265Z,28.20
2018-05-29T15:57:30.353Z,28.20
2018-05-29T15:59:57.120Z,28.20
2018-05-29T16:02:23.841Z,28.20
2018-05-29T16:04:57.602Z,28.20
2018-05-29T16:07:25.061Z,28.20
2018-05-29T16:09:52.594Z,28.20
2018-05-29T16:12:19.314Z,28.20
2018-05-29T16:15:09.141Z,28.30
2018-05-29T16:17:36.566Z,28.30
2018-05-29T16:20:03.360Z,28.30
2018-05-29T16:22:30.886Z,28.30
2018-05-29T16:24:57.575Z,28.30
2018-05-29T16:27:24.322Z,28.30
2018-05-29T16:29:51.040Z,28.30
2018-05-29T16:32:18.471Z,28.30
2018-05-29T16:34:45.227Z,28.30
2018-05-29T16:37:12.023Z,28.30
2018-05-29T16:39:38.767Z,28.30
2018-05-29T16:42:05.591Z,28.30
2018-05-29T16:44:32.354Z,28.30
2018-05-29T16:46:59.210Z,28.20
2018-05-29T16:49:25.937Z,28.20
2018-05-29T16:51:52.803Z,28.10
2018-05-29T16:54:19.593Z,28.10
2018-05-29T16:56:46.324Z,28.10
2018-05-29T16:59:13.985Z,28.00
2018-05-29T17:01:41.454Z,27.90
2018-05-29T17:04:08.874Z,27.90
2018-05-29T17:06:35.549Z,28.00
2018-05-29T17:09:03.115Z,27.90
2018-05-29T17:11:30.562Z,27.90
2018-05-29T17:13:58.081Z,27.90
2018-05-29T17:19:34.981Z,27.90
2018-05-29T17:22:01.723Z,27.80
2018-05-29T17:24:28.544Z,27.80
2018-05-29T17:26:55.311Z,27.80
2018-05-29T17:29:24.997Z,27.70
2018-05-29T17:31:55.605Z,27.70
2018-05-29T17:34:26.963Z,27.70
2018-05-29T17:36:57.789Z,27.70
2018-05-29T17:39:25.447Z,27.60
2018-05-29T17:41:52.286Z,27.60
2018-05-29T17:44:19.028Z,27.60
2018-05-29T17:46:45.770Z,27.50
2018-05-29T17:49:12.584Z,27.40
2018-05-29T17:51:39.274Z,27.30
2018-05-29T17:54:06.785Z,27.20
2018-05-29T17:56:33.631Z,27.20
2018-05-29T17:59:00.485Z,27.20
2018-05-29T18:01:27.198Z,27.10
2018-05-29T18:03:53.944Z,27.10
2018-05-29T18:06:20.907Z,27.10
2018-05-29T18:08:47.635Z,27.10
2018-05-29T18:11:25.337Z,27.00
2018-05-29T18:13:53.839Z,27.00
2018-05-29T18:19:19.861Z,26.90
2018-05-29T18:21:46.643Z,26.90
2018-05-29T18:24:13.573Z,26.90
2018-05-29T18:26:40.337Z,26.90
2018-05-29T18:29:07.132Z,26.90
2018-05-29T18:31:33.876Z,26.80
2018-05-29T18:34:00.617Z,26.80
2018-05-29T18:36:27.394Z,26.80
2018-05-29T18:38:54.138Z,26.70
2018-05-29T18:41:20.840Z,26.70
2018-05-29T18:43:47.677Z,26.60
2018-05-29T18:46:14.495Z,26.60
2018-05-29T18:48:41.189Z,26.60
2018-05-29T18:51:07.927Z,26.60
2018-05-29T18:53:34.618Z,26.50
2018-05-29T18:56:01.342Z,26.50
2018-05-29T18:58:28.087Z,26.50
2018-05-29T19:00:54.861Z,26.40
2018-05-29T19:03:23.105Z,26.40
2018-05-29T19:05:50.612Z,26.30
2018-05-29T19:12:15.513Z,26.30
2018-05-29T19:15:08.037Z,26.20
2018-05-29T19:17:52.302Z,26.10
2018-05-29T19:20:19.172Z,26.20
2018-05-29T19:22:46.718Z,26.10
2018-05-29T19:25:13.424Z,26.10
2018-05-29T19:27:40.211Z,26.10
2018-05-29T19:30:07.643Z,26.10
2018-05-29T19:32:34.398Z,26.00
2018-05-29T19:35:01.154Z,26.00
2018-05-29T19:37:27.947Z,26.00
2018-05-29T19:39:54.689Z,26.00
2018-05-29T19:42:21.379Z,25.90
2018-05-29T19:44:48.127Z,25.90
2018-05-29T19:47:14.806Z,25.90
2018-05-29T19:49:41.557Z,25.90
2018-05-29T19:52:08.253Z,25.90
2018-05-29T19:54:35.763Z,25.80
2018-05-29T19:57:02.466Z,25.80
2018-05-29T19:59:30.043Z,25.80
2018-05-29T20:01:56.735Z,25.80
2018-05-29T20:04:23.461Z,25.70
2018-05-29T20:06:50.155Z,25.70
2018-05-29T20:09:16.909Z,25.70
2018-05-29T20:11:44.426Z,25.60
2018-05-29T20:14:13.478Z,25.60
2018-05-29T20:19:53.038Z,25.50
2018-05-29T20:22:19.918Z,25.50
2018-05-29T20:24:46.639Z,25.50
2018-05-29T20:30:19.814Z,25.50
2018-05-29T20:32:47.250Z,25.50
2018-05-29T20:35:13.939Z,25.40
2018-05-29T20:37:40.679Z,25.50
2018-05-29T20:40:07.445Z,25.40
2018-05-29T20:42:34.145Z,25.40
2018-05-29T20:45:01.615Z,25.40
2018-05-29T20:47:29.078Z,25.40
2018-05-29T20:49:56.593Z,25.40
2018-05-29T20:52:23.330Z,25.40
2018-05-29T20:54:50.059Z,25.40
2018-05-29T20:57:16.788Z,25.40
2018-05-29T20:59:44.287Z,25.30
2018-05-29T21:02:10.987Z,25.30
2018-05-29T21:04:37.719Z,25.30
2018-05-29T21:07:04.453Z,25.30
2018-05-29T21:09:31.939Z,25.30
2018-05-29T21:11:58.805Z,25.30
2018-05-29T21:14:39.296Z,25.30
2018-05-29T21:17:48.246Z,25.30
2018-05-29T21:20:15.694Z,25.30
2018-05-29T21:22:42.452Z,25.20
2018-05-29T21:25:09.938Z,25.30
2018-05-29T21:27:36.661Z,25.20
2018-05-29T21:30:03.419Z,25.20
2018-05-29T21:32:30.404Z,25.20
2018-05-29T21:34:57.093Z,25.20
2018-05-29T21:37:24.558Z,25.20
2018-05-29T21:39:51.242Z,25.20
2018-05-29T21:42:18.053Z,25.20
2018-05-29T21:44:44.750Z,25.20
2018-05-29T21:47:11.476Z,25.10
2018-05-29T21:49:38.210Z,25.10
2018-05-29T21:52:04.919Z,25.00
2018-05-29T21:54:31.664Z,25.00
2018-05-29T21:56:58.335Z,25.00
2018-05-29T21:59:25.177Z,25.00
2018-05-29T22:01:51.951Z,25.00
2018-05-29T22:04:18.686Z,25.00
2018-05-29T22:06:45.470Z,24.90
2018-05-29T22:09:12.432Z,24.90
2018-05-29T22:11:39.203Z,24.90
2018-05-29T22:14:06.083Z,24.90
2018-05-29T22:16:33.587Z,24.80
2018-05-29T22:19:10.230Z,24.90
2018-05-29T22:21:37.735Z,24.80
2018-05-29T22:24:04.548Z,24.80
2018-05-29T22:26:31.246Z,24.80
2018-05-29T22:28:58.064Z,24.80
2018-05-29T22:31:24.931Z,24.80
2018-05-29T22:33:51.732Z,24.80
2018-05-29T22:36:18.421Z,24.80
2018-05-29T22:38:45.134Z,24.80
2018-05-29T22:41:11.836Z,24.80
2018-05-29T22:43:39.411Z,24.70
2018-05-29T22:46:06.174Z,24.70
2018-05-29T22:48:32.994Z,24.70
2018-05-29T22:50:59.875Z,24.70
2018-05-29T22:53:26.831Z,24.60
2018-05-29T22:55:54.691Z,24.60
2018-05-29T22:58:22.257Z,24.50
2018-05-29T23:00:49.031Z,24.60
2018-05-29T23:03:15.844Z,24.50
2018-05-29T23:05:42.579Z,24.50
2018-05-29T23:08:09.327Z,24.50
2018-05-29T23:10:36.042Z,24.50
2018-05-29T23:13:02.811Z,24.50
2018-05-29T23:15:29.513Z,24.40
2018-05-29T23:17:56.237Z,24.50
2018-05-29T23:20:23.206Z,24.40
2018-05-29T23:22:50.074Z,24.40
2018-05-29T23:25:17.021Z,24.40
2018-05-29T23:27:43.728Z,24.40
2018-05-29T23:30:11.301Z,24.30
2018-05-29T23:32:37.991Z,24.30
2018-05-29T23:35:05.480Z,24.30
2018-05-29T23:37:33.375Z,24.30
2018-05-29T23:40:00.153Z,24.30
2018-05-29T23:42:26.877Z,24.30
2018-05-29T23:44:53.545Z,24.20
2018-05-29T23:47:20.345Z,24.20
2018-05-29T23:49:47.070Z,24.30
2018-05-29T23:52:14.582Z,24.30
2018-05-29T23:54:41.273Z,24.30
2018-05-29T23:57:08.856Z,24.20
2018-05-29T23:59:35.570Z,24.20
